Terminal Aerodrome Forecast
Issued by NWS Cleveland, OH

Home | Current Version | Previous Version | Text Only | Print | Product List | Glossary Off
Versions: 1 2 3 4 5 6 7 8 9 10 11 12 13 14 15 16 17

000
FTUS41 KCLE 170209 AAA
TAFMFD
TAF AMD
KMFD 170209Z 1702/1724 33004KT P6SM BKN035
      TEMPO 1703/1706 BKN030
     FM170600 VRB03KT 6SM BR BKN020
     FM171500 17007KT P6SM SCT025 BKN200
     FM172300 20010KT P6SM VCSH SCT060 OVC100=

USA.gov is the U.S. government's official web portal to all federal, state and local government web resources and services.